This is the latest recevied weather packets stored in our database for station/object KQ4EHY-1. If no packets are shown the sender has not sent any weather packets the latest 1 day(s).
| Time | Temp. | Humidity | Pressure | Rain* | Wind** | Luminosity | Snow |
|---|---|---|---|---|---|---|---|
| 1778106009 | 27.78° C | 60% | 1007 hPa | 0 mm | 0.45 m/s, 68° | - | - |
| 1778103130 | 27.22° C | 58% | 1007.2 hPa | 0 mm | 0 m/s | - | - |
| 1778101210 | 28.89° C | 53% | 1007.6 hPa | 0 mm | 0.45 m/s, 320° | - | - |
| 1778097549 | 29.44° C | 51% | 1008.1 hPa | 0 mm | 0.89 m/s, 52° | - | - |
| 1778096290 | 28.89° C | 54% | 1008.8 hPa | 0 mm | 1.79 m/s, 297° | - | - |
| 1778095690 | 29.44° C | 50% | 1008.8 hPa | 0 mm | 0 m/s | - | - |
| 1778095209 | 28.89° C | 53% | 1009.1 hPa | 0 mm | 1.34 m/s, 71° | - | - |
| 1778094789 | 28.33° C | 56% | 1009.1 hPa | 0 mm | 0 m/s | - | - |
| 1778094130 | 28.89° C | 53% | 1009.1 hPa | 0 mm | 1.34 m/s, 269° | - | - |
| 1778093770 | 28.89° C | 54% | 1009.4 hPa | 0 mm | 1.34 m/s, 333° | - | - |
| 1778092750 | 27.78° C | 53% | 1009.5 hPa | 0 mm | 0.45 m/s, 306° | - | - |
| 1778091669 | 27.78° C | 56% | 1008.9 hPa | 0 mm | 0.89 m/s, 86° | - | - |
| 1778090950 | 27.78° C | 55% | 1009.4 hPa | 0 mm | 0.45 m/s, 348° | - | - |
| 1778090889 | 27.78° C | 55% | 1009.4 hPa | 0 mm | 0.45 m/s, 348° | - | - |
| 1778090349 | 27.78° C | 56% | 1009.6 hPa | 0 mm | 0.45 m/s, 4° | - | - |
| 1778090109 | 27.78° C | 53% | 1009.5 hPa | 0 mm | 0.45 m/s, 2° | - | - |
| 1778089629 | 27.78° C | 55% | 1009.5 hPa | 0 mm | 0.89 m/s, 356° | - | - |
| 1778088910 | 27.78° C | 55% | 1009.5 hPa | 0 mm | 0.45 m/s, 14° | - | - |
| 1778088729 | 27.78° C | 56% | 1009.5 hPa | 0 mm | 0 m/s | - | - |
| 1778088489 | 27.22° C | 58% | 1009.7 hPa | 0 mm | 0.45 m/s, 316° | - | - |
| 1778088249 | 27.78° C | 54% | 1009.8 hPa | 0 mm | 1.79 m/s, 314° | - | - |
| 1778087110 | 26.11° C | 61% | 1009.5 hPa | 0 mm | 1.34 m/s, 33° | - | - |
| 1778086329 | 25.56° C | 59% | 1010.2 hPa | 0 mm | 0.45 m/s, 322° | - | - |
| 1778086269 | 25.56° C | 59% | 1010.2 hPa | 0 mm | 0.45 m/s, 322° | - | - |
| 1778085009 | 25° C | 64% | 1010.7 hPa | 0 mm | 0.45 m/s, 317° | - | - |
* Rain latest hour (hover to see other rain measurements)
** Current wind speed in m/s (hover to see current wind gust speed)